createdAt,value
2019-05-07T00:00:50.081Z,54.80
2019-05-07T00:03:22.032Z,54.30
2019-05-07T00:05:53.957Z,54.70
2019-05-07T00:08:23.748Z,54.10
2019-05-07T00:10:54.154Z,54.80
2019-05-07T00:13:25.353Z,56.30
2019-05-07T00:15:55.472Z,55.50
2019-05-07T00:18:25.604Z,55.40
2019-05-07T00:20:56.083Z,55.60
2019-05-07T00:23:26.433Z,55.40
2019-05-07T00:25:56.617Z,55.80
2019-05-07T00:28:26.809Z,56.10
2019-05-07T00:30:56.865Z,56.10
2019-05-07T00:33:26.923Z,55.60
2019-05-07T00:36:07.845Z,55.30
2019-05-07T00:38:39.528Z,55.30
2019-05-07T00:41:14.121Z,54.10
2019-05-07T00:43:45.950Z,53.30
2019-05-07T00:46:17.713Z,52.60
2019-05-07T00:48:47.708Z,54.50
2019-05-07T00:51:28.133Z,53.70
2019-05-07T00:53:58.549Z,54.50
2019-05-07T00:56:28.765Z,54.50
2019-05-07T00:58:59.289Z,51.30
2019-05-07T01:01:29.419Z,52.70
2019-05-07T01:03:59.550Z,47.60
2019-05-07T01:06:29.888Z,51.00
2019-05-07T01:09:00.009Z,49.00
2019-05-07T01:11:30.062Z,46.90
2019-05-07T01:14:00.112Z,48.00
2019-05-07T01:16:30.160Z,48.00
2019-05-07T01:19:01.894Z,52.90
2019-05-07T01:21:32.422Z,55.10
2019-05-07T01:24:03.408Z,55.40
2019-05-07T01:26:33.535Z,55.70
2019-05-07T01:29:03.674Z,55.70
2019-05-07T01:31:39.271Z,55.40
2019-05-07T01:34:22.942Z,55.80
2019-05-07T01:36:52.435Z,56.20
2019-05-07T01:39:23.146Z,55.50
2019-05-07T01:41:53.421Z,56.20
2019-05-07T01:44:23.792Z,51.10
2019-05-07T01:46:53.905Z,52.80
2019-05-07T01:49:24.197Z,55.30
2019-05-07T01:51:54.451Z,55.80
2019-05-07T01:54:24.453Z,55.80
2019-05-07T01:56:54.503Z,55.40
2019-05-07T01:59:24.523Z,56.10
2019-05-07T02:01:56.668Z,55.90
2019-05-07T02:04:40.206Z,56.80
2019-05-07T02:07:14.576Z,55.60
2019-05-07T02:09:49.300Z,55.70
2019-05-07T02:12:22.212Z,56.70
2019-05-07T02:14:53.025Z,55.20
2019-05-07T02:17:24.424Z,55.50
2019-05-07T02:19:54.483Z,56.20
2019-05-07T02:22:24.536Z,56.50
2019-05-07T02:24:54.595Z,57.10
2019-05-07T02:27:24.647Z,54.70
2019-05-07T02:29:54.700Z,56.60
2019-05-07T02:32:24.893Z,55.50
2019-05-07T02:34:54.956Z,54.40
2019-05-07T02:37:33.744Z,55.50
2019-05-07T02:42:44.318Z,56.80
2019-05-07T02:45:16.399Z,55.70
2019-05-07T02:47:46.530Z,57.10
2019-05-07T02:50:32.919Z,57.20
2019-05-07T02:53:22.882Z,57.60
2019-05-07T02:55:58.183Z,57.90
2019-05-07T02:58:28.229Z,57.90
2019-05-07T03:00:58.277Z,57.50
2019-05-07T03:03:28.431Z,56.00
2019-05-07T03:05:58.560Z,54.40
2019-05-07T03:08:28.679Z,52.60
2019-05-07T03:10:58.716Z,56.60
2019-05-07T03:13:28.845Z,57.30
2019-05-07T03:15:59.069Z,57.00
2019-05-07T03:18:29.299Z,53.90
2019-05-07T03:21:12.645Z,57.20
2019-05-07T03:23:46.084Z,57.40
2019-05-07T03:26:23.544Z,57.50
2019-05-07T03:28:55.316Z,56.30
2019-05-07T03:31:36.355Z,49.90
2019-05-07T03:34:07.645Z,54.00
2019-05-07T03:36:39.560Z,56.20
2019-05-07T03:39:09.653Z,57.30
2019-05-07T03:41:43.069Z,57.30
2019-05-07T03:44:33.853Z,56.90
2019-05-07T03:47:16.887Z,56.30
2019-05-07T03:49:47.438Z,56.70
2019-05-07T03:52:17.570Z,57.80
2019-05-07T03:54:47.698Z,57.70
2019-05-07T03:57:19.165Z,58.20
2019-05-07T03:59:49.222Z,56.90
2019-05-07T04:02:19.336Z,57.00
2019-05-07T04:04:49.320Z,56.50
2019-05-07T04:07:19.377Z,55.50
2019-05-07T04:09:49.421Z,57.30
2019-05-07T04:12:19.482Z,58.10
2019-05-07T04:14:49.593Z,58.20
2019-05-07T04:17:23.231Z,58.20
2019-05-07T04:19:53.225Z,58.50
2019-05-07T04:22:26.422Z,59.40
2019-05-07T04:24:59.521Z,58.90
2019-05-07T04:27:37.002Z,59.10
2019-05-07T04:30:08.302Z,59.50
2019-05-07T04:32:43.189Z,59.00
2019-05-07T04:35:13.220Z,59.40
2019-05-07T04:37:43.293Z,59.80
2019-05-07T04:40:13.598Z,59.50
2019-05-07T04:42:43.664Z,59.90
2019-05-07T04:45:14.290Z,59.60
2019-05-07T04:47:47.683Z,59.80
2019-05-07T04:50:36.781Z,59.80
2019-05-07T04:52:49.413Z,59.90
2019-05-07T04:55:22.714Z,58.80
2019-05-07T04:57:53.357Z,60.00
2019-05-07T05:00:23.938Z,59.00
2019-05-07T05:02:55.769Z,59.50
2019-05-07T05:05:26.260Z,58.40
2019-05-07T05:07:56.316Z,57.50
2019-05-07T05:10:26.502Z,55.90
2019-05-07T05:12:56.572Z,52.10
2019-05-07T05:15:27.685Z,51.80
2019-05-07T05:17:57.850Z,51.00
2019-05-07T05:20:42.236Z,51.30
2019-05-07T05:23:13.865Z,52.10
2019-05-07T05:25:45.564Z,50.60
2019-05-07T05:28:15.959Z,52.60
2019-05-07T05:30:50.293Z,52.80
2019-05-07T05:33:20.424Z,51.40
2019-05-07T05:35:52.410Z,51.20
2019-05-07T05:38:22.544Z,51.40
2019-05-07T05:40:52.569Z,51.30
2019-05-07T05:43:27.217Z,48.60
2019-05-07T05:45:58.852Z,48.30
2019-05-07T05:48:28.828Z,50.00
2019-05-07T05:51:03.394Z,47.50
2019-05-07T05:53:38.029Z,46.80
2019-05-07T05:56:12.743Z,45.10
2019-05-07T05:58:52.550Z,45.00
2019-05-07T06:01:42.504Z,45.20
2019-05-07T06:04:13.368Z,45.30
2019-05-07T06:07:11.323Z,45.30
2019-05-07T06:09:52.760Z,45.80
2019-05-07T06:12:42.798Z,45.30
2019-05-07T06:15:14.322Z,47.00
2019-05-07T06:17:48.951Z,46.90
2019-05-07T06:20:37.197Z,46.60
2019-05-07T06:23:18.089Z,47.30
2019-05-07T06:25:49.272Z,46.90
2019-05-07T06:28:22.164Z,47.90
2019-05-07T06:30:52.776Z,47.70
2019-05-07T06:33:24.430Z,49.30
2019-05-07T06:35:54.549Z,48.80
2019-05-07T06:38:26.164Z,48.70
2019-05-07T06:40:57.874Z,47.30
2019-05-07T06:43:29.567Z,46.10
2019-05-07T06:46:04.256Z,46.80
2019-05-07T06:48:42.038Z,44.60
2019-05-07T06:51:05.998Z,45.00
2019-05-07T06:53:36.188Z,43.40
2019-05-07T06:56:06.316Z,44.70
2019-05-07T06:58:47.329Z,44.10
2019-05-07T07:01:35.970Z,43.30
2019-05-07T07:04:13.896Z,42.70
2019-05-07T07:06:48.277Z,41.90
2019-05-07T07:09:29.285Z,43.70
2019-05-07T07:12:13.161Z,39.00
2019-05-07T07:14:42.519Z,40.90
2019-05-07T07:17:13.022Z,40.90
2019-05-07T07:19:43.135Z,42.60
2019-05-07T07:22:13.260Z,43.30
2019-05-07T07:24:43.303Z,41.90
2019-05-07T07:27:13.448Z,43.10
2019-05-07T07:29:48.810Z,42.40
2019-05-07T07:32:23.402Z,42.00
2019-05-07T07:34:54.763Z,41.50
2019-05-07T07:37:26.359Z,42.50
2019-05-07T07:40:16.083Z,41.80
2019-05-07T07:42:46.268Z,41.40
2019-05-07T07:45:19.796Z,39.70
2019-05-07T07:47:49.072Z,37.50
2019-05-07T07:50:19.194Z,39.00
2019-05-07T07:52:49.307Z,38.70
2019-05-07T07:55:22.267Z,38.90
2019-05-07T07:58:12.522Z,38.90
2019-05-07T08:00:53.341Z,38.30
2019-05-07T08:03:23.402Z,36.80
2019-05-07T08:05:53.393Z,35.90
2019-05-07T08:08:23.793Z,36.10
2019-05-07T08:10:53.985Z,37.60
2019-05-07T08:13:24.045Z,36.90
2019-05-07T08:15:54.173Z,38.00
2019-05-07T08:18:24.389Z,38.50
2019-05-07T08:20:54.512Z,38.50
2019-05-07T08:23:24.624Z,38.90
2019-05-07T08:25:54.717Z,39.60
2019-05-07T08:28:25.137Z,39.30
2019-05-07T08:31:13.468Z,38.20
2019-05-07T08:33:48.380Z,38.40
2019-05-07T08:36:19.028Z,38.90
2019-05-07T08:38:52.428Z,38.50
2019-05-07T08:41:22.836Z,38.90
2019-05-07T08:44:08.333Z,38.50
2019-05-07T08:46:44.055Z,36.80
2019-05-07T08:49:15.741Z,37.30
2019-05-07T08:51:47.440Z,36.20
2019-05-07T08:54:17.696Z,36.10
2019-05-07T08:56:47.784Z,36.70
2019-05-07T08:59:17.975Z,35.70
2019-05-07T09:01:47.971Z,36.40
2019-05-07T09:04:17.948Z,36.20
2019-05-07T09:06:48.082Z,35.60
2019-05-07T09:09:18.204Z,36.20
2019-05-07T09:11:48.338Z,36.50
2019-05-07T09:14:18.461Z,36.70
2019-05-07T09:16:48.579Z,36.60
2019-05-07T09:19:18.719Z,36.00
2019-05-07T09:21:49.238Z,37.30
2019-05-07T09:24:19.301Z,38.40
2019-05-07T09:26:53.749Z,37.60
2019-05-07T09:29:25.808Z,37.40
2019-05-07T09:32:00.250Z,38.20
2019-05-07T09:34:38.062Z,37.60
2019-05-07T09:37:18.513Z,38.40
2019-05-07T09:39:48.570Z,37.10
2019-05-07T09:42:18.690Z,37.90
2019-05-07T09:44:48.741Z,38.50
2019-05-07T09:47:18.861Z,38.40
2019-05-07T09:50:03.527Z,38.20
2019-05-07T09:52:22.879Z,38.20
2019-05-07T09:54:52.988Z,38.40
2019-05-07T09:57:30.871Z,37.30
2019-05-07T09:59:54.790Z,36.20
2019-05-07T10:02:25.077Z,35.80
2019-05-07T10:04:55.201Z,36.50
2019-05-07T10:07:25.254Z,37.10
2019-05-07T10:09:55.328Z,38.10
2019-05-07T10:12:39.123Z,37.90
2019-05-07T10:15:09.055Z,38.00
2019-05-07T10:17:57.005Z,37.30
2019-05-07T10:20:27.567Z,37.40
2019-05-07T10:22:57.693Z,37.70
2019-05-07T10:25:29.394Z,37.70
2019-05-07T10:28:01.954Z,38.70
2019-05-07T10:30:32.613Z,38.60
2019-05-07T10:33:02.808Z,38.30
2019-05-07T10:35:33.713Z,38.40
2019-05-07T10:38:04.081Z,38.50
2019-05-07T10:40:34.525Z,38.20
2019-05-07T10:43:04.964Z,39.30
2019-05-07T10:45:52.124Z,39.90
2019-05-07T10:48:40.689Z,39.70
2019-05-07T10:51:10.856Z,40.40
2019-05-07T10:53:42.445Z,40.40
2019-05-07T10:56:12.740Z,41.10
2019-05-07T10:58:42.796Z,40.70
2019-05-07T11:01:14.862Z,40.10
2019-05-07T11:03:45.246Z,40.70
2019-05-07T11:06:15.430Z,41.10
2019-05-07T11:08:45.489Z,41.50
2019-05-07T11:11:15.604Z,40.40
2019-05-07T11:13:45.721Z,41.30
2019-05-07T11:16:17.408Z,40.80
2019-05-07T11:18:49.172Z,39.90
2019-05-07T11:21:22.209Z,40.60
2019-05-07T11:23:52.271Z,40.40
2019-05-07T11:26:22.386Z,40.70
2019-05-07T11:28:52.449Z,40.30
2019-05-07T11:31:22.507Z,40.50
2019-05-07T11:33:52.625Z,39.80
2019-05-07T11:36:22.682Z,39.10
2019-05-07T11:38:52.782Z,39.10
2019-05-07T11:41:24.564Z,38.50
2019-05-07T11:44:01.781Z,38.10
2019-05-07T11:46:52.610Z,38.70
2019-05-07T11:49:24.512Z,38.90
2019-05-07T11:51:58.982Z,38.40
2019-05-07T11:54:29.100Z,38.80
2019-05-07T11:56:59.158Z,38.00
2019-05-07T11:59:29.211Z,37.70
2019-05-07T12:02:00.982Z,39.70
2019-05-07T12:04:32.153Z,38.60
2019-05-07T12:07:02.635Z,37.80
2019-05-07T12:09:33.293Z,38.30
2019-05-07T12:12:03.681Z,37.60
2019-05-07T12:14:35.001Z,37.60
2019-05-07T12:17:06.781Z,37.00
2019-05-07T12:19:36.992Z,38.60
2019-05-07T12:22:07.650Z,38.30
2019-05-07T12:24:38.114Z,37.70
2019-05-07T12:27:08.304Z,38.60
2019-05-07T12:29:38.354Z,37.40
2019-05-07T12:32:29.565Z,37.40
2019-05-07T12:35:02.802Z,38.30
2019-05-07T12:37:32.927Z,37.10
2019-05-07T12:40:03.169Z,37.00
2019-05-07T12:42:33.267Z,37.60
2019-05-07T12:45:04.199Z,39.40
2019-05-07T12:47:34.672Z,39.70
2019-05-07T12:50:05.377Z,39.60
2019-05-07T12:52:49.317Z,38.40
2019-05-07T12:55:26.912Z,36.10
2019-05-07T12:57:57.024Z,38.10
2019-05-07T13:00:46.133Z,38.40
2019-05-07T13:03:21.813Z,37.70
2019-05-07T13:05:53.175Z,39.70
2019-05-07T13:08:23.569Z,37.70
2019-05-07T13:10:54.661Z,38.00
2019-05-07T13:13:24.726Z,39.00
2019-05-07T13:15:54.870Z,39.50
2019-05-07T13:18:24.988Z,38.80
2019-05-07T13:20:55.072Z,38.50
2019-05-07T13:23:25.281Z,38.90
2019-05-07T13:25:55.346Z,38.70
2019-05-07T13:28:25.425Z,38.70
2019-05-07T13:30:55.482Z,38.60
2019-05-07T13:33:26.912Z,39.10
2019-05-07T13:35:57.047Z,39.90
2019-05-07T13:38:29.405Z,39.00
2019-05-07T13:41:17.141Z,40.50
2019-05-07T13:43:58.914Z,41.10
2019-05-07T13:46:31.017Z,40.40
2019-05-07T13:49:02.094Z,40.20
2019-05-07T13:51:33.842Z,40.10
2019-05-07T13:54:04.294Z,39.00
2019-05-07T13:56:34.428Z,36.80
2019-05-07T13:59:05.031Z,38.60
2019-05-07T14:01:36.929Z,38.70
2019-05-07T14:04:07.357Z,39.40
2019-05-07T14:06:42.622Z,38.80
2019-05-07T14:09:15.252Z,39.90
2019-05-07T14:11:45.368Z,40.40
2019-05-07T14:14:18.196Z,39.80
2019-05-07T14:16:48.318Z,40.20
2019-05-07T14:19:18.453Z,39.60
2019-05-07T14:21:48.576Z,38.80
2019-05-07T14:24:18.625Z,38.70
2019-05-07T14:26:48.757Z,38.10
2019-05-07T14:29:18.742Z,39.30
2019-05-07T14:31:51.741Z,40.40
2019-05-07T14:34:24.048Z,40.90
2019-05-07T14:36:55.798Z,41.40
2019-05-07T14:39:25.840Z,42.90
2019-05-07T14:41:57.985Z,42.80
2019-05-07T14:44:46.165Z,42.50
2019-05-07T14:47:17.542Z,39.70
2019-05-07T14:49:48.366Z,41.20
2019-05-07T14:52:29.182Z,39.70
2019-05-07T14:54:50.233Z,38.80
2019-05-07T14:57:22.095Z,37.40
2019-05-07T14:59:52.493Z,37.30
2019-05-07T15:02:23.640Z,39.10
2019-05-07T15:04:53.940Z,40.90
2019-05-07T15:07:24.005Z,38.40
2019-05-07T15:09:54.133Z,37.40
2019-05-07T15:12:24.282Z,38.00
2019-05-07T15:14:54.745Z,38.30
2019-05-07T15:17:29.905Z,40.70
2019-05-07T15:20:00.033Z,42.00
2019-05-07T15:22:49.117Z,42.10
2019-05-07T15:25:12.167Z,40.40
2019-05-07T15:27:43.438Z,41.40
2019-05-07T15:30:14.131Z,40.10
2019-05-07T15:32:44.618Z,40.70
2019-05-07T15:35:14.737Z,39.60
2019-05-07T15:37:44.845Z,40.60
2019-05-07T15:40:14.974Z,41.10
2019-05-07T15:42:45.032Z,41.30
2019-05-07T15:45:15.332Z,39.40
2019-05-07T15:47:49.568Z,41.00
2019-05-07T15:50:19.547Z,39.80
2019-05-07T15:52:58.798Z,36.90
2019-05-07T15:55:29.076Z,38.10
2019-05-07T15:57:59.764Z,39.90
2019-05-07T16:00:33.423Z,39.30
2019-05-07T16:03:07.600Z,39.60
2019-05-07T16:05:37.665Z,39.70
2019-05-07T16:08:09.741Z,39.70
2019-05-07T16:10:39.810Z,40.60
2019-05-07T16:13:11.856Z,40.00
2019-05-07T16:15:43.266Z,40.30
2019-05-07T16:18:15.027Z,40.40
2019-05-07T16:20:45.097Z,40.60
2019-05-07T16:23:18.006Z,40.10
2019-05-07T16:25:46.764Z,38.20
2019-05-07T16:28:16.832Z,39.10
2019-05-07T16:30:46.886Z,38.70
2019-05-07T16:33:16.951Z,40.30
2019-05-07T16:35:47.518Z,39.50
2019-05-07T16:38:18.188Z,39.70
2019-05-07T16:40:48.405Z,40.50
2019-05-07T16:43:18.544Z,39.70
2019-05-07T16:45:48.665Z,40.40
2019-05-07T16:48:18.649Z,41.00
2019-05-07T16:50:48.772Z,42.30
2019-05-07T16:53:27.441Z,40.10
2019-05-07T16:55:52.237Z,40.50
2019-05-07T16:58:24.192Z,41.10
2019-05-07T17:01:09.309Z,41.40
2019-05-07T17:03:55.365Z,40.90
2019-05-07T17:06:25.529Z,42.00
2019-05-07T17:09:02.428Z,41.30
2019-05-07T17:11:33.527Z,41.50
2019-05-07T17:14:03.645Z,43.00
2019-05-07T17:16:34.073Z,42.40
2019-05-07T17:19:04.552Z,41.00
2019-05-07T17:21:37.801Z,41.00
2019-05-07T17:24:09.000Z,41.00
2019-05-07T17:26:39.131Z,42.40
2019-05-07T17:29:09.273Z,42.60
2019-05-07T17:31:39.805Z,42.80
2019-05-07T17:34:11.830Z,42.60
2019-05-07T17:36:42.373Z,43.00
2019-05-07T17:39:12.527Z,42.60
2019-05-07T17:41:43.089Z,42.20
2019-05-07T17:44:14.360Z,42.50
2019-05-07T17:46:46.134Z,42.10
2019-05-07T17:49:16.408Z,42.80
2019-05-07T17:51:46.539Z,43.40
2019-05-07T17:54:16.684Z,44.10
2019-05-07T17:56:46.806Z,44.50
2019-05-07T17:59:17.264Z,45.10
2019-05-07T18:01:50.201Z,45.60
2019-05-07T18:04:21.805Z,45.40
2019-05-07T18:06:52.346Z,45.00
2019-05-07T18:09:23.530Z,46.10
2019-05-07T18:11:53.720Z,47.30
2019-05-07T18:14:24.115Z,48.30
2019-05-07T18:16:58.665Z,48.80
2019-05-07T18:19:30.391Z,49.10
2019-05-07T18:22:02.504Z,49.30
2019-05-07T18:24:32.685Z,49.70
2019-05-07T18:27:04.458Z,49.70
2019-05-07T18:29:34.583Z,49.80
2019-05-07T18:32:06.283Z,49.80
2019-05-07T18:34:36.754Z,50.00
2019-05-07T18:37:07.975Z,50.10
2019-05-07T18:39:38.106Z,49.90
2019-05-07T18:42:08.223Z,50.10
2019-05-07T18:44:41.713Z,51.10
2019-05-07T18:47:12.943Z,50.90
2019-05-07T18:49:44.852Z,50.50
2019-05-07T18:52:15.275Z,50.60
2019-05-07T18:54:47.867Z,50.80
2019-05-07T18:57:17.085Z,51.10
2019-05-07T18:59:49.322Z,51.20
2019-05-07T19:02:19.512Z,51.20
2019-05-07T19:04:51.807Z,51.50
2019-05-07T19:07:23.071Z,51.50
2019-05-07T19:09:53.241Z,51.60
2019-05-07T19:12:24.978Z,51.70
2019-05-07T19:14:55.070Z,51.40
2019-05-07T19:17:25.715Z,52.20
2019-05-07T19:19:55.944Z,51.40
2019-05-07T19:22:26.064Z,51.60
2019-05-07T19:24:56.112Z,51.50
2019-05-07T19:27:26.230Z,51.30
2019-05-07T19:29:56.431Z,51.10
2019-05-07T19:32:26.490Z,51.40
2019-05-07T19:34:56.613Z,51.50
2019-05-07T19:37:26.958Z,51.50
2019-05-07T19:39:57.072Z,51.10
2019-05-07T19:42:27.138Z,51.30
2019-05-07T19:44:58.356Z,51.40
2019-05-07T19:47:28.482Z,51.00
2019-05-07T19:49:58.678Z,51.20
2019-05-07T19:52:28.861Z,51.30
2019-05-07T19:55:02.453Z,51.10
2019-05-07T19:57:33.289Z,51.00
2019-05-07T20:00:05.224Z,50.90
2019-05-07T20:02:40.510Z,50.80
2019-05-07T20:05:12.119Z,50.90
2019-05-07T20:07:43.494Z,51.10
2019-05-07T20:10:16.337Z,51.40
2019-05-07T20:12:46.537Z,51.80
2019-05-07T20:15:16.780Z,52.00
2019-05-07T20:17:46.904Z,51.90
2019-05-07T20:20:17.548Z,51.90
2019-05-07T20:22:47.722Z,51.00
2019-05-07T20:25:19.256Z,51.00
2019-05-07T20:27:49.600Z,51.00
2019-05-07T20:30:19.727Z,51.80
2019-05-07T20:32:49.852Z,51.70
2019-05-07T20:35:19.969Z,51.70
2019-05-07T20:37:52.021Z,51.60
2019-05-07T20:40:22.670Z,51.70
2019-05-07T20:42:52.885Z,51.50
2019-05-07T20:45:23.892Z,51.60
2019-05-07T20:47:54.065Z,51.70
2019-05-07T20:50:24.182Z,51.50
2019-05-07T20:52:54.373Z,52.10
2019-05-07T20:55:30.609Z,52.20
2019-05-07T20:57:57.761Z,51.60
2019-05-07T21:00:28.948Z,51.80
2019-05-07T21:03:16.885Z,51.90
2019-05-07T21:05:48.200Z,51.80
2019-05-07T21:08:18.337Z,51.90
2019-05-07T21:10:48.772Z,52.10
2019-05-07T21:13:30.085Z,50.90
2019-05-07T21:15:52.629Z,50.60
2019-05-07T21:18:23.253Z,49.70
2019-05-07T21:20:53.850Z,50.90
2019-05-07T21:23:24.001Z,50.00
2019-05-07T21:25:54.157Z,49.60
2019-05-07T21:28:24.184Z,49.80
2019-05-07T21:30:54.595Z,48.70
2019-05-07T21:33:24.880Z,48.70
2019-05-07T21:35:54.862Z,48.70
2019-05-07T21:38:24.909Z,49.30
2019-05-07T21:40:55.348Z,49.10
2019-05-07T21:43:25.397Z,49.30
2019-05-07T21:45:55.382Z,50.10
2019-05-07T21:48:25.507Z,50.50
2019-05-07T21:50:55.932Z,48.90
2019-05-07T21:53:27.620Z,51.10
2019-05-07T21:56:05.133Z,50.40
2019-05-07T21:58:47.296Z,50.30
2019-05-07T22:01:22.206Z,51.20
2019-05-07T22:03:54.264Z,52.00
2019-05-07T22:06:24.532Z,52.60
2019-05-07T22:08:54.936Z,52.40
2019-05-07T22:11:25.195Z,51.80
2019-05-07T22:13:55.323Z,52.60
2019-05-07T22:16:25.387Z,53.30
2019-05-07T22:18:55.497Z,52.10
2019-05-07T22:21:25.924Z,52.70
2019-05-07T22:23:55.968Z,52.50
2019-05-07T22:26:26.679Z,52.70
2019-05-07T22:28:56.967Z,53.90
2019-05-07T22:31:31.332Z,53.50
2019-05-07T22:34:19.152Z,53.40
2019-05-07T22:36:49.453Z,54.10
2019-05-07T22:39:23.844Z,53.50
2019-05-07T22:41:55.492Z,53.50
2019-05-07T22:44:26.524Z,53.50
2019-05-07T22:46:58.349Z,54.00
2019-05-07T22:49:28.426Z,53.80
2019-05-07T22:51:58.481Z,53.70
2019-05-07T22:54:28.600Z,53.60
2019-05-07T22:57:06.209Z,53.90
2019-05-07T22:59:36.213Z,55.00
2019-05-07T23:02:06.848Z,54.80
2019-05-07T23:04:36.982Z,53.10
2019-05-07T23:07:07.566Z,54.90
2019-05-07T23:09:37.914Z,53.30
2019-05-07T23:12:07.977Z,53.30
2019-05-07T23:14:37.965Z,55.20
2019-05-07T23:17:08.012Z,54.70
2019-05-07T23:19:37.997Z,52.80
2019-05-07T23:22:07.978Z,53.20
2019-05-07T23:24:38.125Z,53.50
2019-05-07T23:27:08.153Z,53.10
2019-05-07T23:29:38.281Z,53.40
2019-05-07T23:32:08.388Z,52.60
2019-05-07T23:34:38.508Z,52.60
2019-05-07T23:37:08.566Z,53.20
2019-05-07T23:39:42.956Z,52.90
2019-05-07T23:42:14.644Z,54.10
2019-05-07T23:44:44.772Z,53.10
2019-05-07T23:47:14.893Z,52.60
2019-05-07T23:49:44.952Z,52.60
2019-05-07T23:52:15.030Z,52.90
2019-05-07T23:54:45.080Z,52.90
2019-05-07T23:57:15.524Z,53.00
2019-05-07T23:59:45.760Z,53.10
